Time;durP1;ratioP1;P1;durP2;ratioP2;P2;SDS_P1;SDS_P2;PMS_P1;PMS_P2;Temp;Humidity;BMP_temperature;BMP_pressure;BME280_temperature;BME280_humidity;BME280_pressure;Samples;Min_cycle;Max_cycle;Signal;HPM_P1;HPM_P2
2022/04/12 00:01:54;;;;;;;7.67;4.90;;;1.80;99.90;;;;;;5013820;28;20483;-52
2022/04/12 00:04:20;;;;;;;8.27;5.17;;;1.80;99.90;;;;;;5008165;28;20452;-52
2022/04/12 00:06:48;;;;;;;8.20;4.67;;;1.70;99.90;;;;;;4993809;28;20519;-52
2022/04/12 00:09:14;;;;;;;8.33;5.20;;;1.80;99.90;;;;;;4993490;28;20507;-52
2022/04/12 00:11:42;;;;;;;8.53;5.43;;;1.80;99.90;;;;;;4993244;28;20481;-53
2022/04/12 00:14:08;;;;;;;14.90;5.30;;;1.80;99.90;;;;;;5011506;28;20941;-53
2022/04/12 00:16:35;;;;;;;10.37;6.00;;;1.80;99.90;;;;;;5012875;28;20566;-53
2022/04/12 00:19:03;;;;;;;10.07;5.10;;;1.80;99.90;;;;;;5012742;28;20888;-52
2022/04/12 00:21:30;;;;;;;10.57;5.03;;;1.80;99.90;;;;;;4990935;28;20457;-52
2022/04/12 00:23:58;;;;;;;8.73;5.20;;;1.80;99.90;;;;;;4974023;28;20461;-52
2022/04/12 00:26:25;;;;;;;5.73;4.10;;;1.80;99.90;;;;;;4983567;28;20599;-52
2022/04/12 00:28:52;;;;;;;13.13;5.40;;;1.80;99.90;;;;;;4992978;28;20985;-52
2022/04/12 00:31:18;;;;;;;8.57;5.27;;;1.80;99.90;;;;;;4993186;28;20536;-52
2022/04/12 00:33:45;;;;;;;9.43;5.57;;;1.80;99.90;;;;;;4993478;28;20507;-53
2022/04/12 00:36:11;;;;;;;10.20;5.23;;;1.80;99.90;;;;;;4993150;28;20575;-52
2022/04/12 00:38:38;;;;;;;9.40;4.97;;;1.80;99.90;;;;;;4980291;28;20488;-53
2022/04/12 00:41:07;;;;;;;8.53;5.57;;;1.70;99.90;;;;;;5008427;28;20448;-53
2022/04/12 00:43:36;;;;;;;11.70;5.93;;;1.70;99.90;;;;;;5012664;28;20950;-52
2022/04/12 00:46:03;;;;;;;13.10;5.63;;;1.70;99.90;;;;;;5013108;28;20992;-52
2022/04/12 00:48:32;;;;;;;11.17;4.47;;;1.70;99.90;;;;;;5012982;28;20933;-52
2022/04/12 00:50:59;;;;;;;6.53;4.13;;;1.70;99.90;;;;;;5003960;28;20507;-53
2022/04/12 00:53:27;;;;;;;10.13;4.60;;;1.70;99.90;;;;;;4992759;28;20481;-52
2022/04/12 00:55:54;;;;;;;6.20;4.40;;;1.60;99.90;;;;;;4992930;28;20512;-53
2022/04/12 00:58:22;;;;;;;6.47;4.37;;;1.50;99.90;;;;;;4992590;28;20867;-52
2022/04/12 01:00:49;;;;;;;5.07;4.10;;;1.50;99.90;;;;;;4992623;28;20453;-52
2022/04/12 01:03:16;;;;;;;9.43;4.13;;;1.50;99.90;;;;;;4992677;28;20959;-52
2022/04/12 01:05:42;;;;;;;8.63;4.30;;;1.50;99.90;;;;;;5010650;28;21064;-52
2022/04/12 01:08:09;;;;;;;4.60;3.77;;;1.50;99.90;;;;;;5012178;28;20484;-52
2022/04/12 01:10:37;;;;;;;5.43;3.37;;;1.50;99.90;;;;;;5000762;28;20484;-52
2022/04/12 01:13:04;;;;;;;9.63;4.33;;;1.40;99.90;;;;;;4975038;28;20552;-52
2022/04/12 01:15:31;;;;;;;8.67;3.70;;;1.40;99.90;;;;;;4991586;28;20546;-52
2022/04/12 01:17:58;;;;;;;8.97;3.77;;;1.30;99.90;;;;;;4992455;28;20484;-52
2022/04/12 01:20:29;;;;;;;7.67;4.20;;;1.30;99.90;;;;;;4992621;28;20481;-52
2022/04/12 01:22:59;;;;;;;4.87;3.33;;;1.30;99.90;;;;;;4985535;28;20547;-52
2022/04/12 01:25:27;;;;;;;6.20;3.17;;;1.30;99.90;;;;;;4972981;28;20564;-52
2022/04/12 01:27:54;;;;;;;10.07;3.10;;;1.30;99.90;;;;;;4986443;28;20552;-52
2022/04/12 01:30:21;;;;;;;8.03;4.37;;;1.30;99.90;;;;;;4993572;28;20480;-53
2022/04/12 01:32:47;;;;;;;6.53;3.63;;;1.20;99.90;;;;;;4992293;28;20958;-52
2022/04/12 01:35:14;;;;;;;6.13;4.37;;;1.20;99.90;;;;;;4992331;28;20523;-52
2022/04/12 01:37:40;;;;;;;6.47;3.43;;;1.20;99.90;;;;;;4991758;28;20476;-52
2022/04/12 01:40:09;;;;;;;7.13;3.97;;;1.20;99.90;;;;;;4994282;28;20485;-52
2022/04/12 01:42:37;;;;;;;5.43;3.33;;;1.20;99.90;;;;;;5012175;28;20506;-53
2022/04/12 01:45:04;;;;;;;5.17;3.73;;;1.20;99.90;;;;;;5011877;28;21012;-52
2022/04/12 01:47:31;;;;;;;8.47;3.93;;;1.20;99.90;;;;;;5011730;28;20566;-52
2022/04/12 01:49:57;;;;;;;3.30;3.00;;;1.10;99.90;;;;;;5011884;28;20478;-52
2022/04/12 01:52:24;;;;;;;6.73;3.50;;;1.10;99.90;;;;;;5001667;28;20535;-52
2022/04/12 01:54:51;;;;;;;8.70;3.73;;;1.00;99.90;;;;;;4992227;28;20516;-52
2022/04/12 01:57:18;;;;;;;4.67;3.40;;;1.00;99.90;;;;;;4992282;28;20547;-53
2022/04/12 01:59:46;;;;;;;5.30;3.50;;;1.00;99.90;;;;;;4991916;28;20484;-53
2022/04/12 02:02:12;;;;;;;5.40;3.40;;;1.00;99.90;;;;;;4991968;28;21010;-52
2022/04/12 02:04:39;;;;;;;3.10;2.77;;;0.90;99.90;;;;;;4992562;28;20449;-51
2022/04/12 02:07:06;;;;;;;4.40;3.27;;;0.90;99.90;;;;;;4991867;28;20496;-52
2022/04/12 02:09:33;;;;;;;4.70;3.60;;;0.90;99.90;;;;;;4991894;28;20527;-52
2022/04/12 02:12:00;;;;;;;6.83;3.80;;;0.90;99.90;;;;;;4991983;28;21049;-52
2022/04/12 02:14:26;;;;;;;4.17;3.60;;;0.90;99.90;;;;;;4997693;28;20448;-53
2022/04/12 02:16:54;;;;;;;6.40;3.73;;;0.80;99.90;;;;;;5011810;28;20542;-49
2022/04/12 02:19:21;;;;;;;10.27;4.07;;;0.80;99.90;;;;;;5011651;28;20482;-49
2022/04/12 02:21:47;;;;;;;4.10;3.80;;;0.80;99.90;;;;;;5000179;28;20548;-49
2022/04/12 02:24:14;;;;;;;13.03;3.13;;;0.80;99.90;;;;;;4995338;28;20534;-49
2022/04/12 02:26:40;;;;;;;6.70;3.43;;;0.70;99.90;;;;;;5011512;28;20547;-50
2022/04/12 02:29:07;;;;;;;6.83;3.70;;;0.70;99.90;;;;;;5011376;28;21117;-49
2022/04/12 02:31:34;;;;;;;4.67;3.10;;;0.70;99.90;;;;;;5011716;28;20539;-49
2022/04/12 02:34:02;;;;;;;3.73;3.00;;;0.70;99.90;;;;;;5010872;28;20538;-49
2022/04/12 02:36:28;;;;;;;12.50;5.33;;;0.70;99.90;;;;;;4998225;28;21089;-52
2022/04/12 02:38:55;;;;;;;5.97;3.27;;;0.70;99.90;;;;;;4995241;28;20536;-49
2022/04/12 02:41:21;;;;;;;9.10;4.50;;;0.70;99.90;;;;;;4995415;28;20484;-49
2022/04/12 02:43:48;;;;;;;5.20;3.70;;;0.60;99.90;;;;;;4994977;28;20543;-50
2022/04/12 02:46:14;;;;;;;4.53;3.77;;;0.60;99.90;;;;;;4986606;28;20574;-49
2022/04/12 02:48:41;;;;;;;4.13;3.20;;;0.60;99.90;;;;;;4994222;28;20456;-49
2022/04/12 02:51:09;;;;;;;5.10;3.70;;;0.60;99.90;;;;;;4975759;28;20897;-49
2022/04/12 02:53:35;;;;;;;5.17;3.73;;;0.60;99.90;;;;;;4975568;28;21023;-49
2022/04/12 02:56:02;;;;;;;8.20;4.53;;;0.60;99.90;;;;;;5011287;28;20483;-50
2022/04/12 02:58:28;;;;;;;6.20;4.10;;;0.70;99.90;;;;;;5014276;28;20530;-49
2022/04/12 03:00:55;;;;;;;6.17;3.97;;;0.70;99.90;;;;;;5014741;28;20486;-49
2022/04/12 03:03:21;;;;;;;7.90;4.43;;;0.70;99.90;;;;;;5007840;28;20527;-49
2022/04/12 03:05:48;;;;;;;9.13;4.00;;;0.60;99.90;;;;;;5010546;28;20563;-49
2022/04/12 03:08:16;;;;;;;4.97;3.67;;;0.60;99.90;;;;;;5014181;28;20534;-50
2022/04/12 03:10:43;;;;;;;6.97;3.70;;;0.60;99.90;;;;;;5014306;28;20490;-49
2022/04/12 03:13:09;;;;;;;5.13;3.70;;;0.60;99.90;;;;;;5014436;28;20542;-49
2022/04/12 03:15:36;;;;;;;5.90;3.80;;;0.60;99.90;;;;;;4993569;28;20575;-48
2022/04/12 03:18:02;;;;;;;6.60;4.20;;;0.60;99.90;;;;;;4992929;28;21033;-49
2022/04/12 03:20:29;;;;;;;4.60;3.70;;;0.60;99.90;;;;;;4994139;28;21073;-52
2022/04/12 03:22:56;;;;;;;6.43;3.90;;;0.60;99.90;;;;;;4993962;28;20453;-51
2022/04/12 03:25:24;;;;;;;6.50;3.67;;;0.50;99.90;;;;;;4995339;28;20468;-52
2022/04/12 03:27:50;;;;;;;7.87;3.80;;;0.50;99.90;;;;;;4994423;28;20554;-51
2022/04/12 03:30:17;;;;;;;7.93;4.13;;;0.50;99.90;;;;;;4994394;28;20992;-52
2022/04/12 03:32:44;;;;;;;6.00;3.37;;;0.40;99.90;;;;;;4993925;28;20476;-52
2022/04/12 03:35:10;;;;;;;4.00;3.17;;;0.50;99.90;;;;;;5004017;28;20530;-52
2022/04/12 03:37:37;;;;;;;5.03;3.60;;;0.40;99.90;;;;;;5013709;28;20480;-53
2022/04/12 03:40:04;;;;;;;4.77;3.30;;;0.40;99.90;;;;;;5013647;28;20479;-52
2022/04/12 03:42:32;;;;;;;7.33;3.50;;;0.30;99.90;;;;;;5013849;28;20526;-53
2022/04/12 03:44:58;;;;;;;3.53;3.30;;;0.30;99.90;;;;;;5004220;28;20531;-52
2022/04/12 03:47:25;;;;;;;5.70;3.40;;;0.40;99.90;;;;;;4993354;28;20555;-53
2022/04/12 03:49:51;;;;;;;7.10;4.27;;;0.30;99.90;;;;;;4993988;28;21001;-52
2022/04/12 03:52:18;;;;;;;5.20;3.43;;;0.30;99.90;;;;;;4994149;28;20709;-52
2022/04/12 03:54:45;;;;;;;8.00;3.40;;;0.30;99.90;;;;;;4994552;28;20449;-52
2022/04/12 03:57:11;;;;;;;5.43;3.93;;;0.30;99.90;;;;;;4993786;28;21065;-51
2022/04/12 03:59:39;;;;;;;6.00;4.20;;;0.30;99.90;;;;;;4993405;28;20512;-53
2022/04/12 04:02:06;;;;;;;5.33;3.90;;;0.20;99.90;;;;;;4993945;28;20539;-52
2022/04/12 04:04:32;;;;;;;5.30;3.53;;;0.30;99.90;;;;;;4997632;28;20871;-52
2022/04/12 04:06:59;;;;;;;5.90;4.23;;;0.20;99.90;;;;;;5013127;28;20506;-52
2022/04/12 04:09:25;;;;;;;4.27;3.13;;;0.30;99.90;;;;;;5013271;28;20530;-53
2022/04/12 04:11:52;;;;;;;4.90;3.60;;;0.20;99.90;;;;;;5013359;28;20535;-53
2022/04/12 04:14:19;;;;;;;11.03;4.13;;;0.20;99.90;;;;;;4996879;28;20486;-52
2022/04/12 04:16:46;;;;;;;4.87;3.33;;;0.30;99.90;;;;;;4977329;28;20572;-52
2022/04/12 04:19:13;;;;;;;6.90;3.67;;;0.20;99.90;;;;;;4973889;28;20552;-51
2022/04/12 04:21:40;;;;;;;4.43;3.80;;;0.20;99.90;;;;;;4973822;28;20453;-52
2022/04/12 04:24:07;;;;;;;4.37;3.97;;;0.20;99.90;;;;;;4988986;28;20539;-52
2022/04/12 04:26:33;;;;;;;5.60;4.20;;;0.30;99.90;;;;;;4993592;28;20496;-52
2022/04/12 04:29:00;;;;;;;9.53;4.57;;;0.30;99.90;;;;;;4992217;28;20798;-52
2022/04/12 04:31:27;;;;;;;5.33;3.70;;;0.30;99.90;;;;;;4990111;28;20449;-53
2022/04/12 04:33:55;;;;;;;3.93;3.43;;;0.30;99.90;;;;;;4973756;28;20532;-53
2022/04/12 04:36:21;;;;;;;7.33;3.40;;;0.30;99.90;;;;;;4973518;28;20938;-54
2022/04/12 04:38:48;;;;;;;4.80;4.33;;;0.40;99.90;;;;;;4973694;28;20532;-53
2022/04/12 04:41:14;;;;;;;4.40;3.60;;;0.40;99.90;;;;;;5000755;28;20483;-53
2022/04/12 04:43:42;;;;;;;5.90;3.70;;;0.40;99.90;;;;;;4993349;28;20540;-53
2022/04/12 04:46:09;;;;;;;8.43;4.30;;;0.50;99.90;;;;;;4993029;28;21053;-53
2022/04/12 04:48:35;;;;;;;5.07;4.57;;;0.60;99.90;;;;;;4992807;28;20531;-53
2022/04/12 04:51:03;;;;;;;6.97;5.47;;;0.60;99.90;;;;;;5005854;28;20873;-53
2022/04/12 04:53:29;;;;;;;7.30;5.50;;;0.70;99.90;;;;;;5012938;28;20539;-54
2022/04/12 04:55:56;;;;;;;16.03;9.50;;;0.70;99.90;;;;;;5003854;28;20569;-53
2022/04/12 04:58:22;;;;;;;13.40;8.07;;;0.80;99.90;;;;;;4992680;28;20540;-54
2022/04/12 05:00:49;;;;;;;12.17;8.10;;;0.90;99.90;;;;;;5003715;28;21013;-53
2022/04/12 05:03:15;;;;;;;12.10;6.57;;;0.90;99.90;;;;;;5012371;28;20479;-54
2022/04/12 05:05:42;;;;;;;11.40;6.20;;;1.00;99.90;;;;;;5012639;28;20878;-53
2022/04/12 05:08:10;;;;;;;7.13;5.03;;;1.10;99.90;;;;;;5012344;28;20490;-52
2022/04/12 05:10:36;;;;;;;8.40;4.70;;;1.20;99.90;;;;;;5007973;28;20527;-54
2022/04/12 05:13:03;;;;;;;4.67;4.27;;;1.20;99.90;;;;;;5012215;28;20542;-54
2022/04/12 05:15:30;;;;;;;7.93;4.83;;;1.30;99.90;;;;;;5001148;28;20528;-54
2022/04/12 05:17:57;;;;;;;6.67;3.80;;;1.30;99.90;;;;;;4992274;28;20571;-54
2022/04/12 05:20:25;;;;;;;5.50;4.20;;;1.40;99.90;;;;;;4993844;28;20476;-54
2022/04/12 05:22:53;;;;;;;12.17;4.80;;;1.50;99.90;;;;;;4992566;28;20452;-54
2022/04/12 05:25:21;;;;;;;6.20;4.10;;;1.70;99.90;;;;;;4992437;28;20480;-50
2022/04/12 05:27:48;;;;;;;15.60;5.17;;;1.90;99.90;;;;;;4992537;28;20532;-50
2022/04/12 05:30:16;;;;;;;7.80;5.50;;;2.10;99.90;;;;;;4998189;28;20455;-49
2022/04/12 05:32:43;;;;;;;8.43;5.40;;;2.50;99.90;;;;;;5012061;28;20456;-50
2022/04/12 05:35:10;;;;;;;8.90;6.03;;;2.80;99.90;;;;;;5012352;28;20535;-50
2022/04/12 05:37:45;;;;;;;8.03;5.93;;;3.20;99.90;;;;;;5007036;28;20480;-51
2022/04/12 05:40:12;;;;;;;9.60;5.40;;;3.50;90.40;;;;;;4997714;28;20446;-51
2022/04/12 05:42:41;;;;;;;9.87;6.43;;;3.60;24.80;;;;;;5011987;28;20942;-51
2022/04/12 05:45:09;;;;;;;22.87;7.00;;;3.80;32.20;;;;;;5011959;28;20550;-51
2022/04/12 05:47:46;;;;;;;10.57;5.60;;;4.00;43.30;;;;;;5011609;28;21013;-51
2022/04/12 05:50:14;;;;;;;10.17;5.77;;;4.20;46.70;;;;;;5011704;28;20953;-51
2022/04/12 05:52:42;;;;;;;10.37;6.80;;;4.40;58.90;;;;;;4998518;28;20532;-51
2022/04/12 05:55:09;;;;;;;9.07;5.87;;;4.60;61.90;;;;;;4992423;28;20535;-51
2022/04/12 05:57:37;;;;;;;12.60;5.90;;;4.80;64.00;;;;;;4991857;28;21097;-50
2022/04/12 06:00:07;;;;;;;11.73;7.27;;;4.90;79.60;;;;;;4995353;28;20444;-50
2022/04/12 06:02:34;;;;;;;13.40;6.70;;;5.10;79.70;;;;;;5012101;28;20536;-52
2022/04/12 06:05:06;;;;;;;12.10;6.30;;;5.40;85.70;;;;;;5012337;28;20534;-52
2022/04/12 06:07:35;;;;;;;12.13;6.40;;;5.60;92.40;;;;;;4993173;28;20457;-49
2022/04/12 06:10:02;;;;;;;8.90;5.63;;;5.90;99.90;;;;;;4997577;28;20543;-49
2022/04/12 06:12:29;;;;;;;13.67;5.37;;;6.20;99.90;;;;;;5015977;28;20530;-50
2022/04/12 06:14:56;;;;;;;9.20;5.20;;;6.60;99.90;;;;;;5016993;28;20474;-49
2022/04/12 06:17:29;;;;;;;6.07;5.30;;;6.70;99.90;;;;;;5021954;28;20575;-50
2022/04/12 06:20:00;;;;;;;10.90;5.17;;;6.80;99.90;;;;;;5014342;28;20457;-50
2022/04/12 06:22:26;;;;;;;9.70;5.10;;;7.10;99.90;;;;;;5018498;28;20479;-50
2022/04/12 06:24:52;;;;;;;5.00;4.50;;;7.30;99.90;;;;;;5012328;28;20476;-50
2022/04/12 06:27:28;;;;;;;9.77;6.27;;;7.50;99.90;;;;;;5008043;28;20543;-50
2022/04/12 06:29:54;;;;;;;24.63;6.63;;;7.70;99.90;;;;;;4992306;28;20530;-50
2022/04/12 06:32:21;;;;;;;25.93;5.10;;;7.90;99.90;;;;;;5015469;28;20873;-50
2022/04/12 06:34:49;;;;;;;6.83;5.00;;;7.70;99.90;;;;;;5001933;28;20535;-49
2022/04/12 06:37:15;;;;;;;13.33;5.03;;;7.70;99.90;;;;;;4995250;28;20580;-49
2022/04/12 06:39:41;;;;;;;4.57;4.13;;;7.90;99.90;;;;;;4996457;28;20539;-50
2022/04/12 06:42:08;;;;;;;8.33;4.93;;;8.00;99.90;;;;;;5015672;28;20494;-50
2022/04/12 06:44:37;;;;;;;11.33;4.60;;;7.90;99.90;;;;;;5014926;28;21020;-50
2022/04/12 06:47:04;;;;;;;5.53;4.37;;;8.10;99.90;;;;;;5015145;28;20467;-49
2022/04/12 06:49:30;;;;;;;12.40;5.43;;;8.40;99.90;;;;;;4996025;28;20542;-49
2022/04/12 06:51:59;;;;;;;11.80;5.13;;;8.50;99.90;;;;;;5002889;28;20539;-50
2022/04/12 06:54:26;;;;;;;10.23;5.30;;;8.50;99.90;;;;;;5014950;28;20518;-50
2022/04/12 06:56:52;;;;;;;6.10;5.07;;;8.60;99.90;;;;;;5014698;28;20574;-49
2022/04/12 06:59:20;;;;;;;7.97;4.83;;;8.60;99.90;;;;;;5001658;28;20531;-49
2022/04/12 07:01:47;;;;;;;7.77;4.70;;;8.60;99.90;;;;;;4995711;28;20453;-50
2022/04/12 07:04:13;;;;;;;6.10;4.23;;;8.60;99.90;;;;;;4995103;28;20523;-51
2022/04/12 07:06:40;;;;;;;8.30;4.60;;;8.70;99.90;;;;;;4988538;28;20472;-50
2022/04/12 07:09:10;;;;;;;8.80;5.30;;;9.00;99.90;;;;;;4994849;28;20452;-50
2022/04/12 07:11:36;;;;;;;14.73;6.20;;;9.40;99.90;;;;;;5009945;28;20570;-50
2022/04/12 07:14:03;;;;;;;10.57;5.47;;;9.50;99.90;;;;;;5015066;28;20534;-50
2022/04/12 07:16:29;;;;;;;11.60;5.67;;;9.40;99.90;;;;;;4984279;28;20525;-50
2022/04/12 07:18:56;;;;;;;9.13;5.10;;;9.40;99.90;;;;;;4975876;28;20544;-49
2022/04/12 07:21:22;;;;;;;13.33;6.53;;;9.40;99.90;;;;;;5000113;28;20969;-51
2022/04/12 07:23:50;;;;;;;7.97;5.60;;;9.40;99.90;;;;;;5015209;28;20531;-50
2022/04/12 07:26:18;;;;;;;6.37;5.77;;;9.40;99.90;;;;;;5015116;28;20472;-50
2022/04/12 07:28:45;;;;;;;11.10;6.93;;;9.50;99.90;;;;;;5014665;28;20535;-51
2022/04/12 07:31:11;;;;;;;8.97;5.97;;;9.60;99.90;;;;;;5010686;28;20531;-52
2022/04/12 07:33:38;;;;;;;12.33;6.13;;;10.00;99.90;;;;;;5015127;28;20519;-52
2022/04/12 07:36:05;;;;;;;5.70;5.10;;;10.40;99.90;;;;;;5015055;28;20495;-52
2022/04/12 07:38:31;;;;;;;15.93;5.73;;;10.40;99.90;;;;;;5015031;28;20526;-53
2022/04/12 07:40:58;;;;;;;5.50;5.00;;;10.70;99.90;;;;;;4996697;28;20540;-52
2022/04/12 07:43:26;;;;;;;10.47;5.60;;;11.10;99.90;;;;;;4975559;28;20552;-51
2022/04/12 07:45:52;;;;;;;6.50;4.70;;;11.00;99.90;;;;;;4976287;28;21026;-52
2022/04/12 07:48:19;;;;;;;7.90;5.40;;;10.90;99.90;;;;;;4975692;28;20518;-51
2022/04/12 07:50:45;;;;;;;8.93;5.70;;;11.20;99.90;;;;;;4987611;28;20538;-51
2022/04/12 07:53:12;;;;;;;5.13;4.63;;;11.60;99.90;;;;;;5014321;28;20539;-52
2022/04/12 07:55:38;;;;;;;7.57;4.77;;;11.90;99.90;;;;;;5013902;28;20543;-52
2022/04/12 07:58:05;;;;;;;6.67;4.80;;;11.90;99.90;;;;;;5014018;28;20566;-52
2022/04/12 08:00:33;;;;;;;10.80;5.30;;;12.10;99.90;;;;;;5011285;28;20910;-54
2022/04/12 08:03:00;;;;;;;7.03;4.67;;;12.20;99.90;;;;;;5004401;28;20483;-54
2022/04/12 08:05:26;;;;;;;5.97;4.63;;;12.50;99.90;;;;;;4994069;28;20556;-54
2022/04/12 08:07:53;;;;;;;7.53;5.80;;;12.60;99.90;;;;;;4994026;28;20524;-53
2022/04/12 08:10:20;;;;;;;7.60;6.03;;;12.60;99.90;;;;;;4995473;28;20535;-53
2022/04/12 08:12:47;;;;;;;14.30;5.93;;;12.80;99.90;;;;;;5013313;28;20535;-55
2022/04/12 08:15:15;;;;;;;8.07;5.47;;;12.70;99.90;;;;;;5012998;28;20452;-56
2022/04/12 08:17:43;;;;;;;6.67;5.20;;;12.70;99.90;;;;;;5013673;28;20570;-51
2022/04/12 08:20:11;;;;;;;8.23;5.53;;;12.70;99.90;;;;;;4998920;28;20488;-50
2022/04/12 08:22:38;;;;;;;9.10;5.93;;;13.00;99.90;;;;;;5013152;28;20490;-51
2022/04/12 08:25:05;;;;;;;13.53;6.00;;;12.90;99.90;;;;;;5013131;28;20476;-52
2022/04/12 08:27:34;;;;;;;9.87;4.93;;;12.30;99.90;;;;;;5004717;28;20520;-50
2022/04/12 08:30:02;;;;;;;9.40;6.27;;;12.80;99.90;;;;;;4977494;28;20991;-52
2022/04/12 08:32:29;;;;;;;8.83;5.23;;;13.00;99.90;;;;;;5011695;28;20455;-51
2022/04/12 08:34:58;;;;;;;6.17;5.50;;;13.00;99.90;;;;;;5008256;28;20853;-51
2022/04/12 08:37:24;;;;;;;6.73;5.40;;;13.10;99.90;;;;;;4991471;28;20504;-51
2022/04/12 08:39:51;;;;;;;7.17;5.40;;;13.10;99.90;;;;;;4993213;28;20532;-51
2022/04/12 08:42:18;;;;;;;6.07;5.57;;;13.20;99.90;;;;;;5010172;28;20480;-51
2022/04/12 08:44:46;;;;;;;8.27;5.73;;;13.30;99.90;;;;;;5013143;28;20535;-52
2022/04/12 08:47:15;;;;;;;6.07;5.03;;;13.40;99.90;;;;;;5013392;28;20499;-51
2022/04/12 08:49:42;;;;;;;7.33;5.03;;;13.30;99.90;;;;;;5013116;28;20471;-51
2022/04/12 08:52:11;;;;;;;10.73;5.00;;;13.50;99.90;;;;;;4998647;28;20524;-51
2022/04/12 08:54:38;;;;;;;8.40;4.80;;;14.00;99.90;;;;;;4977516;28;20449;-52
2022/04/12 08:57:05;;;;;;;9.37;5.10;;;14.10;99.90;;;;;;4986137;28;20497;-52
2022/04/12 08:59:31;;;;;;;8.30;4.93;;;14.10;99.90;;;;;;5015489;28;20476;-52
2022/04/12 09:01:58;;;;;;;9.43;4.20;;;14.40;99.90;;;;;;5019427;28;20486;-50
2022/04/12 09:04:26;;;;;;;7.30;4.80;;;14.80;99.90;;;;;;5018971;28;20539;-52
2022/04/12 09:06:55;;;;;;;5.97;5.07;;;14.60;99.90;;;;;;5011978;28;20471;-53
2022/04/12 09:09:24;;;;;;;5.97;4.77;;;14.30;99.90;;;;;;4999063;28;20969;-50
2022/04/12 09:11:58;;;;;;;5.10;4.60;;;13.80;99.90;;;;;;4993109;28;20507;-50
2022/04/12 09:14:25;;;;;;;4.77;4.37;;;13.90;99.90;;;;;;4992786;28;20935;-53
2022/04/12 09:16:53;;;;;;;8.30;4.60;;;13.90;99.90;;;;;;5003789;28;20901;-52
2022/04/12 09:19:37;;;;;;;8.50;4.33;;;13.60;99.90;;;;;;5012117;28;20455;-51
2022/04/12 09:22:10;;;;;;;7.20;4.47;;;13.50;99.90;;;;;;5006424;28;20448;-51
2022/04/12 09:24:44;;;;;;;8.13;5.07;;;13.70;99.90;;;;;;4992410;28;20479;-51
2022/04/12 09:27:13;;;;;;;6.13;4.17;;;14.00;99.90;;;;;;4992664;28;20479;-51
2022/04/12 09:29:44;;;;;;;6.60;4.37;;;13.70;99.90;;;;;;4992412;28;20455;-52
2022/04/12 09:32:13;;;;;;;5.47;4.40;;;14.30;99.90;;;;;;4998147;28;20531;-52
2022/04/12 09:34:40;;;;;;;8.90;5.00;;;15.00;99.90;;;;;;4996991;28;20514;-51
2022/04/12 09:37:20;;;;;;;4.80;4.40;;;15.50;99.90;;;;;;4992210;28;21108;-51
2022/04/12 09:39:54;;;;;;;4.67;4.27;;;15.80;99.90;;;;;;4993508;28;20487;-51
2022/04/12 09:42:45;;;;;;;5.70;4.40;;;15.90;99.90;;;;;;4991935;28;20457;-52
2022/04/12 09:45:14;;;;;;;5.77;4.90;;;15.60;99.90;;;;;;4995609;28;20456;-52
2022/04/12 09:47:42;;;;;;;6.03;4.73;;;16.10;99.90;;;;;;4996274;28;20898;-52
2022/04/12 09:50:10;;;;;;;5.27;4.60;;;15.80;99.90;;;;;;5001945;28;21085;-51
2022/04/12 09:52:37;;;;;;;5.80;4.67;;;16.10;99.90;;;;;;5016461;28;20459;-51
2022/04/12 09:55:07;;;;;;;11.20;4.97;;;16.00;99.90;;;;;;5016260;28;20455;-51
2022/04/12 09:57:34;;;;;;;6.60;5.10;;;15.70;99.90;;;;;;5015702;28;20483;-51
2022/04/12 10:00:00;;;;;;;7.60;4.83;;;15.70;99.90;;;;;;5003266;28;20991;-52
2022/04/12 10:02:28;;;;;;;4.53;4.10;;;15.50;99.90;;;;;;5016195;28;20988;-51
2022/04/12 10:04:56;;;;;;;4.80;4.40;;;15.10;99.90;;;;;;5015790;28;20455;-53
2022/04/12 10:07:24;;;;;;;5.00;4.50;;;15.10;99.90;;;;;;5015698;28;20451;-50
2022/04/12 10:09:52;;;;;;;6.40;5.13;;;14.70;99.90;;;;;;4998852;28;20540;-50
2022/04/12 10:12:21;;;;;;;4.97;4.47;;;14.80;99.90;;;;;;4996092;28;20539;-50
2022/04/12 10:14:48;;;;;;;8.20;5.60;;;15.00;99.90;;;;;;4994662;28;20487;-51
2022/04/12 10:17:15;;;;;;;9.40;5.90;;;15.30;99.90;;;;;;4976274;28;20473;-51
2022/04/12 10:19:43;;;;;;;9.50;5.77;;;15.20;99.90;;;;;;5006616;28;20479;-50
2022/04/12 10:22:10;;;;;;;6.83;5.27;;;15.60;99.90;;;;;;5015275;28;21206;-51
2022/04/12 10:24:38;;;;;;;10.57;5.57;;;15.90;99.90;;;;;;5015523;28;20451;-50
2022/04/12 10:27:06;;;;;;;5.90;5.30;;;15.80;99.90;;;;;;5015497;28;20471;-51
2022/04/12 10:29:34;;;;;;;10.03;5.37;;;16.10;99.90;;;;;;5014586;28;20475;-50
2022/04/12 10:32:03;;;;;;;9.33;5.83;;;16.00;99.90;;;;;;4997105;28;20877;-51
2022/04/12 10:34:30;;;;;;;11.17;6.10;;;16.60;99.90;;;;;;4988907;28;20548;-50
2022/04/12 10:37:08;;;;;;;6.93;5.87;;;16.50;99.90;;;;;;5013430;28;20554;-51
2022/04/12 10:39:39;;;;;;;9.67;5.90;;;15.60;99.90;;;;;;5014978;28;20489;-50
2022/04/12 10:42:08;;;;;;;8.53;5.17;;;16.10;99.90;;;;;;5015207;28;20870;-51
2022/04/12 10:44:42;;;;;;;6.60;5.10;;;16.30;99.90;;;;;;5014409;28;20502;-51
2022/04/12 10:47:27;;;;;;;5.60;5.07;;;16.20;99.90;;;;;;5014744;28;20522;-50
2022/04/12 10:49:55;;;;;;;8.80;5.40;;;16.00;99.90;;;;;;4979607;28;20972;-50
2022/04/12 10:52:33;;;;;;;6.27;5.27;;;16.60;99.90;;;;;;4975937;28;20539;-51
2022/04/12 10:55:00;;;;;;;6.03;5.30;;;16.80;99.90;;;;;;4999600;28;20614;-50
2022/04/12 10:57:27;;;;;;;8.53;5.70;;;17.00;99.90;;;;;;5012587;28;20535;-51
2022/04/12 11:00:02;;;;;;;10.40;5.10;;;16.30;99.90;;;;;;5014721;28;20483;-51
2022/04/12 11:02:31;;;;;;;7.87;5.67;;;16.30;99.90;;;;;;4992340;28;20544;-51
2022/04/12 11:04:58;;;;;;;6.00;5.43;;;16.30;99.90;;;;;;4976668;28;20453;-51
2022/04/12 11:07:29;;;;;;;5.80;5.20;;;16.80;99.90;;;;;;4975427;28;20998;-50
2022/04/12 11:10:29;;;;;;;6.70;6.10;;;17.00;99.90;;;;;;4991472;28;20535;-51
2022/04/12 11:13:05;;;;;;;10.20;6.20;;;16.60;99.90;;;;;;4995274;28;20472;-51
2022/04/12 11:15:35;;;;;;;7.83;6.03;;;16.20;99.90;;;;;;4991845;28;20472;-51
2022/04/12 11:18:10;;;;;;;11.23;6.57;;;15.70;99.90;;;;;;4993395;28;20566;-51
2022/04/12 11:20:38;;;;;;;7.10;5.63;;;16.10;99.90;;;;;;4994161;28;20536;-51
2022/04/12 11:23:08;;;;;;;9.57;6.10;;;16.10;99.90;;;;;;4992575;28;20512;-51
2022/04/12 11:25:44;;;;;;;10.60;6.47;;;16.20;99.90;;;;;;4996270;28;20476;-50
2022/04/12 11:28:12;;;;;;;6.33;5.47;;;16.10;99.90;;;;;;5014259;28;20440;-51
2022/04/12 11:30:40;;;;;;;6.30;5.13;;;15.80;99.90;;;;;;5014474;28;20455;-54
2022/04/12 11:33:09;;;;;;;6.57;5.40;;;16.20;99.90;;;;;;4994499;28;20535;-53
2022/04/12 11:35:38;;;;;;;9.77;5.23;;;16.40;99.90;;;;;;4994454;28;20479;-53
2022/04/12 11:38:05;;;;;;;7.23;6.17;;;16.10;99.90;;;;;;4988973;28;21093;-54
2022/04/12 11:40:32;;;;;;;10.23;6.10;;;15.70;99.90;;;;;;4975209;28;20545;-54
2022/04/12 11:42:58;;;;;;;6.33;5.73;;;15.90;99.90;;;;;;5011492;28;20546;-54
2022/04/12 11:45:31;;;;;;;7.90;5.47;;;16.10;99.90;;;;;;5013910;28;20550;-53
2022/04/12 11:47:59;;;;;;;7.70;5.43;;;16.30;99.90;;;;;;5013873;28;20523;-54
2022/04/12 11:50:26;;;;;;;7.50;6.70;;;16.40;99.90;;;;;;5013934;28;20542;-53
2022/04/12 11:52:53;;;;;;;8.20;5.90;;;16.60;99.90;;;;;;4996369;28;20535;-53
2022/04/12 11:55:19;;;;;;;6.80;6.07;;;16.80;99.90;;;;;;4985696;28;20556;-54
2022/04/12 11:57:46;;;;;;;6.57;5.87;;;16.90;99.90;;;;;;4974257;28;20841;-54
2022/04/12 12:00:13;;;;;;;9.13;6.60;;;16.90;99.90;;;;;;4974436;28;20492;-55
2022/04/12 12:02:41;;;;;;;11.03;6.43;;;16.90;99.90;;;;;;5000887;28;20530;-55
2022/04/12 12:05:11;;;;;;;8.47;6.30;;;17.00;99.90;;;;;;4974486;28;20453;-53
2022/04/12 12:07:38;;;;;;;9.87;7.07;;;16.50;99.90;;;;;;4973507;28;20544;-54
2022/04/12 12:10:09;;;;;;;13.73;5.90;;;16.70;99.90;;;;;;4974311;28;20450;-53
2022/04/12 12:12:37;;;;;;;8.40;6.53;;;16.90;99.90;;;;;;5003996;28;20482;-54
2022/04/12 12:15:17;;;;;;;6.63;5.93;;;16.50;99.90;;;;;;5013300;28;20462;-54
2022/04/12 12:17:45;;;;;;;8.40;6.43;;;17.10;99.90;;;;;;5011489;28;20556;-54
2022/04/12 12:20:13;;;;;;;7.90;6.10;;;17.00;99.90;;;;;;5012936;28;20450;-55
2022/04/12 12:22:41;;;;;;;7.10;6.03;;;16.80;99.90;;;;;;5013123;28;20619;-54
2022/04/12 12:25:10;;;;;;;10.37;6.90;;;17.10;99.90;;;;;;5012966;28;20527;-54
2022/04/12 12:27:38;;;;;;;9.43;6.83;;;17.00;99.90;;;;;;5009834;28;20453;-54
2022/04/12 12:30:07;;;;;;;6.13;5.30;;;17.00;99.90;;;;;;5013370;28;20854;-54
2022/04/12 12:32:35;;;;;;;12.30;6.67;;;17.40;99.90;;;;;;5012660;28;20535;-53
2022/04/12 12:35:03;;;;;;;8.17;6.93;;;17.10;99.90;;;;;;5012901;28;20534;-54
2022/04/12 12:37:32;;;;;;;8.60;6.33;;;17.10;99.90;;;;;;5011476;28;20483;-54
2022/04/12 12:39:59;;;;;;;8.00;7.13;;;16.90;99.90;;;;;;4993426;28;20579;-54
2022/04/12 12:42:34;;;;;;;12.73;6.80;;;16.50;99.90;;;;;;4993516;28;20522;-54
2022/04/12 12:45:08;;;;;;;23.67;6.93;;;17.40;99.90;;;;;;4986322;28;20540;-51
2022/04/12 12:47:36;;;;;;;8.63;7.17;;;18.20;99.90;;;;;;4976398;28;20491;-51
2022/04/12 12:50:04;;;;;;;9.80;7.17;;;18.60;99.90;;;;;;5012741;28;20459;-51
2022/04/12 12:52:32;;;;;;;9.13;7.47;;;19.00;99.90;;;;;;5013122;28;20454;-50
2022/04/12 12:55:00;;;;;;;7.87;7.00;;;19.80;99.90;;;;;;5012722;28;20651;-50